Time;durP1;ratioP1;P1;durP2;ratioP2;P2;SDS_P1;SDS_P2;PMS_P1;PMS_P2;Temp;Humidity;BMP_temperature;BMP_pressure;BME280_temperature;BME280_humidity;BME280_pressure;Samples;Min_cycle;Max_cycle;Signal;HPM_P1;HPM_P2
2022/06/16 00:02:06;;;;;;;10.27;5.72;;;;;;;;;;5114334;28;20419;-82
2022/06/16 00:04:33;;;;;;;9.85;5.53;;;;;;;;;;5121153;28;20887;-82
2022/06/16 00:06:59;;;;;;;8.95;5.57;;;;;;;;;;5096015;28;20903;-82
2022/06/16 00:09:26;;;;;;;9.32;5.63;;;14.70;99.90;;;;;;5091561;28;20495;-82
2022/06/16 00:11:54;;;;;;;8.10;5.28;;;;;;;;;;5093710;28;20441;-82
2022/06/16 00:14:23;;;;;;;8.82;5.30;;;;;;;;;;5090904;28;20770;-81
2022/06/16 00:16:49;;;;;;;9.48;5.68;;;;;;;;;;5080158;28;20462;-81
2022/06/16 00:19:15;;;;;;;10.77;5.80;;;;;;;;;;5107176;28;20456;-81
2022/06/16 00:21:42;;;;;;;7.90;5.10;;;;;;;;;;5076411;28;20832;-82
2022/06/16 00:24:08;;;;;;;9.57;5.03;;;;;;;;;;5091184;28;20498;-82
2022/06/16 00:26:34;;;;;;;7.22;4.90;;;15.00;99.90;;;;;;5098064;28;20456;-82
2022/06/16 00:29:00;;;;;;;7.57;5.07;;;;;;;;;;5091553;28;20476;-81
2022/06/16 00:31:26;;;;;;;8.68;5.30;;;;;;;;;;5076630;28;20492;-81
2022/06/16 00:33:52;;;;;;;8.93;5.28;;;;;;;;;;5110886;28;20454;-81
2022/06/16 00:36:18;;;;;;;11.10;5.95;;;;;;;;;;5080668;28;20426;-81
2022/06/16 00:38:45;;;;;;;9.73;5.45;;;;;;;;;;5106963;28;20420;-81
2022/06/16 00:41:11;;;;;;;8.90;5.80;;;;;;;;;;5077704;28;20438;-81
2022/06/16 00:43:37;;;;;;;11.07;5.63;;;;;;;;;;5088998;28;20432;-81
2022/06/16 00:46:24;;;;;;;9.10;5.45;;;14.40;99.90;;;;;;5097928;28;21031;-82
2022/06/16 00:48:57;;;;;;;8.30;5.63;;;;;;;;;;5081555;28;20917;-82
2022/06/16 00:51:49;;;;;;;9.80;5.30;;;14.40;99.90;;;;;;5111233;28;20432;-82
2022/06/16 00:54:19;;;;;;;8.13;5.20;;;;;;;;;;5104708;28;20426;-82
2022/06/16 00:56:45;;;;;;;7.33;5.03;;;;;;;;;;5089864;28;20543;-82
2022/06/16 00:59:11;;;;;;;7.97;4.93;;;;;;;;;;5084162;28;20714;-82
2022/06/16 01:01:40;;;;;;;8.15;4.93;;;14.50;99.90;;;;;;5087024;28;20415;-82
2022/06/16 06:17:39;;;;;;;6.60;4.00;;;;;;;;;;5118748;27;20369;-78
2022/06/16 06:20:05;;;;;;;6.60;3.80;;;16.40;99.90;;;;;;5115082;28;20755;-79
2022/06/16 06:22:31;;;;;;;10.18;4.07;;;;;;;;;;5099033;28;20458;-79
2022/06/16 06:24:58;;;;;;;6.20;3.57;;;;;;;;;;5085100;28;20550;-79
2022/06/16 06:27:31;;;;;;;6.55;3.70;;;;;;;;;;5080365;28;20424;-78
2022/06/16 06:29:57;;;;;;;4.35;2.42;;;;;;;;;;5128846;27;20427;-79
2022/06/16 06:32:24;;;;;;;5.25;2.70;;;16.80;99.90;;;;;;5098737;28;20434;-78
2022/06/16 06:34:51;;;;;;;5.03;2.63;;;;;;;;;;5097508;28;20500;-78
2022/06/16 06:37:20;;;;;;;4.55;2.08;;;17.20;99.90;;;;;;5100626;28;20421;-79
2022/06/16 06:39:46;;;;;;;5.83;2.13;;;17.10;99.90;;;;;;5136770;27;21026;-78
2022/06/16 06:42:12;;;;;;;5.43;2.43;;;;;;;;;;5092474;28;20434;-78
2022/06/16 06:44:38;;;;;;;5.20;1.90;;;;;;;;;;5077041;28;20419;-78
2022/06/16 06:47:05;;;;;;;6.25;2.38;;;;;;;;;;5080681;28;20452;-78
2022/06/16 06:49:30;;;;;;;4.35;2.47;;;17.60;99.90;;;;;;5112551;27;20452;-78
2022/06/16 06:51:56;;;;;;;7.65;2.47;;;17.50;99.90;;;;;;5069112;28;20910;-78
2022/06/16 06:54:22;;;;;;;5.40;2.50;;;17.50;99.90;;;;;;5092546;28;20433;-78
2022/06/16 06:56:50;;;;;;;5.65;2.65;;;17.60;99.90;;;;;;5107721;27;21002;-79
2022/06/16 06:59:18;;;;;;;5.60;2.40;;;17.50;99.90;;;;;;5113826;28;20508;-79
2022/06/16 07:01:49;;;;;;;5.38;2.90;;;17.60;99.90;;;;;;5116617;27;20525;-79
2022/06/16 07:04:17;;;;;;;5.55;3.35;;;17.40;99.90;;;;;;5109176;27;20430;-79
2022/06/16 07:06:43;;;;;;;5.80;2.90;;;17.90;99.90;;;;;;5114743;27;21099;-79
2022/06/16 07:09:14;;;;;;;8.02;3.60;;;17.70;99.90;;;;;;5097678;28;20472;-78
2022/06/16 07:11:41;;;;;;;5.50;3.25;;;17.70;99.90;;;;;;5105489;27;20511;-78
2022/06/16 07:14:08;;;;;;;7.45;3.60;;;17.30;99.90;;;;;;5114610;28;20423;-78
2022/06/16 07:16:34;;;;;;;7.90;3.03;;;17.90;99.90;;;;;;5080406;28;20821;-77
2022/06/16 07:19:00;;;;;;;4.72;3.05;;;18.10;99.90;;;;;;5098252;28;20411;-78
2022/06/16 07:21:26;;;;;;;6.50;2.67;;;17.90;99.90;;;;;;5093396;28;20778;-77
2022/06/16 07:23:53;;;;;;;7.40;3.30;;;18.20;99.90;;;;;;5096261;28;20416;-77
2022/06/16 07:26:19;;;;;;;6.25;2.90;;;18.50;99.90;;;;;;5088871;28;20537;-77
2022/06/16 07:28:45;;;;;;;6.70;2.88;;;19.00;99.90;;;;;;5084222;28;20499;-77
2022/06/16 07:31:11;;;;;;;5.38;2.08;;;18.70;99.90;;;;;;5049613;28;20416;-77
2022/06/16 07:33:37;;;;;;;6.15;2.38;;;18.90;99.90;;;;;;5067561;28;20435;-77
2022/06/16 07:36:03;;;;;;;9.82;2.92;;;19.00;99.90;;;;;;5082760;28;20485;-77
2022/06/16 07:38:29;;;;;;;5.50;3.10;;;19.20;99.90;;;;;;5085600;28;20835;-76
2022/06/16 07:41:31;;;;;;;6.00;3.17;;;19.20;99.90;;;;;;5062347;28;20426;-77
2022/06/16 07:43:40;;;;;;;6.82;3.10;;;18.90;99.90;;;;;;5044937;28;21584;-78
2022/06/16 07:46:06;;;;;;;5.88;3.13;;;18.90;99.90;;;;;;5101296;27;20415;-78
2022/06/16 07:48:32;;;;;;;6.38;3.10;;;18.90;99.90;;;;;;5099973;28;20538;-79
2022/06/16 07:50:57;;;;;;;4.90;2.72;;;19.00;99.90;;;;;;5050060;28;20423;-78
2022/06/16 07:53:23;;;;;;;5.27;2.90;;;;;;;;;;5086828;28;20423;-79
2022/06/16 07:55:49;;;;;;;5.30;2.65;;;19.30;99.90;;;;;;5059363;28;20433;-78
2022/06/16 07:58:15;;;;;;;5.63;3.10;;;19.70;99.90;;;;;;5036477;28;20427;-78
2022/06/16 08:00:40;;;;;;;7.35;2.88;;;19.40;99.90;;;;;;5069378;28;20460;-79
2022/06/16 08:03:06;;;;;;;4.93;2.67;;;19.50;99.90;;;;;;5049047;28;20422;-78
2022/06/16 08:05:32;;;;;;;5.63;2.60;;;19.80;99.90;;;;;;5067201;28;20420;-79
2022/06/16 08:07:58;;;;;;;5.50;2.80;;;19.90;99.90;;;;;;5053962;28;20496;-79
2022/06/16 08:10:28;;;;;;;5.53;2.85;;;19.80;99.90;;;;;;5088807;28;20517;-79
2022/06/16 08:12:54;;;;;;;4.93;2.83;;;20.50;99.90;;;;;;5087519;28;20429;-78
2022/06/16 08:15:20;;;;;;;6.95;2.88;;;20.70;99.90;;;;;;5092214;28;20419;-78
2022/06/16 08:17:50;;;;;;;6.93;2.70;;;20.30;99.90;;;;;;5050977;28;20423;-78
2022/06/16 08:20:16;;;;;;;4.82;2.42;;;20.20;99.90;;;;;;5048730;28;20498;-77
2022/06/16 08:22:42;;;;;;;6.07;3.03;;;20.40;99.90;;;;;;5048416;28;20415;-78
2022/06/16 08:25:12;;;;;;;5.53;2.83;;;20.50;99.90;;;;;;5033874;28;20430;-77
2022/06/16 08:27:39;;;;;;;9.40;3.17;;;21.00;99.90;;;;;;5052338;28;21019;-77
2022/06/16 08:30:09;;;;;;;5.85;2.90;;;20.80;99.90;;;;;;5053618;28;20516;-78
2022/06/16 08:32:35;;;;;;;5.85;2.80;;;20.80;99.90;;;;;;5038919;28;20908;-78
2022/06/16 08:35:01;;;;;;;5.50;2.60;;;21.00;99.90;;;;;;5054963;28;20435;-78
2022/06/16 08:37:27;;;;;;;4.95;2.90;;;20.70;99.90;;;;;;5049890;28;20425;-77
2022/06/16 08:39:52;;;;;;;5.15;2.70;;;20.70;99.90;;;;;;5036770;28;20927;-77
2022/06/16 08:42:24;;;;;;;4.65;3.00;;;20.70;99.90;;;;;;5041721;28;20435;-77
2022/06/16 08:45:05;;;;;;;7.18;3.17;;;20.60;99.90;;;;;;5031627;28;20428;-77
2022/06/16 08:47:37;;;;;;;7.88;3.17;;;21.60;99.90;;;;;;5055860;28;20798;-77
2022/06/16 08:50:24;;;;;;;4.83;3.00;;;21.60;99.90;;;;;;5050854;28;20463;-77
2022/06/16 08:53:14;;;;;;;5.50;2.97;;;22.00;99.90;;;;;;5052477;28;20423;-76
2022/06/16 08:55:46;;;;;;;4.75;3.15;;;21.80;99.90;;;;;;5042666;28;20423;-77
2022/06/16 08:58:24;;;;;;;7.18;3.28;;;22.00;99.90;;;;;;5068430;28;20424;-77
2022/06/16 09:00:56;;;;;;;7.35;3.10;;;21.60;99.90;;;;;;5054341;28;20406;-77
2022/06/16 09:03:33;;;;;;;6.20;3.03;;;21.70;99.90;;;;;;5053032;28;20910;-77
2022/06/16 09:06:27;;;;;;;6.25;3.13;;;21.90;99.90;;;;;;5070813;28;20426;-77
2022/06/16 09:09:05;;;;;;;5.80;3.50;;;21.80;99.90;;;;;;5064907;28;20480;-76
2022/06/16 09:11:39;;;;;;;7.65;3.40;;;21.80;99.90;;;;;;5055867;28;20503;-76
2022/06/16 09:17:59;;;;;;;7.00;3.33;;;21.10;99.90;;;;;;5076434;28;20444;-76
2022/06/16 09:20:33;;;;;;;7.20;3.10;;;21.20;99.90;;;;;;5054584;28;20465;-76
2022/06/16 09:23:12;;;;;;;6.15;3.20;;;21.60;99.90;;;;;;5090865;28;20422;-76
2022/06/16 09:25:40;;;;;;;5.40;3.20;;;22.00;99.90;;;;;;5028360;28;20509;-76
2022/06/16 09:28:31;;;;;;;6.63;3.10;;;22.30;99.90;;;;;;5034848;28;20429;-76
2022/06/16 09:31:00;;;;;;;8.27;4.53;;;21.70;99.90;;;;;;5046037;28;20415;-79
2022/06/16 09:33:36;;;;;;;7.88;4.03;;;21.80;99.90;;;;;;5037563;28;20558;-78
2022/06/16 09:36:23;;;;;;;11.30;4.30;;;21.50;99.90;;;;;;5022157;28;20479;-78
2022/06/16 09:39:03;;;;;;;7.13;4.20;;;21.50;99.90;;;;;;5059591;28;20507;-76
2022/06/16 09:44:44;;;;;;;7.10;4.00;;;22.70;99.90;;;;;;5053419;28;20767;-77
2022/06/16 09:47:14;;;;;;;5.88;3.70;;;22.10;99.90;;;;;;5050820;28;20469;-77
2022/06/16 09:49:44;;;;;;;7.95;4.38;;;22.00;99.90;;;;;;5032311;28;20437;-76
2022/06/16 09:52:36;;;;;;;8.85;4.93;;;22.30;99.90;;;;;;5045451;28;20494;-77
2022/06/16 09:55:21;;;;;;;6.38;4.13;;;22.40;99.90;;;;;;5038571;28;20492;-77
2022/06/16 09:57:52;;;;;;;5.75;3.92;;;22.30;99.90;;;;;;5051353;28;20930;-77
2022/06/16 10:00:21;;;;;;;6.60;3.85;;;22.40;99.90;;;;;;5046558;28;20419;-77
2022/06/16 10:02:53;;;;;;;6.75;4.43;;;22.00;99.90;;;;;;5027579;28;20415;-77
2022/06/16 10:05:33;;;;;;;8.18;4.28;;;22.30;99.90;;;;;;5050266;28;20412;-77
2022/06/16 10:08:15;;;;;;;6.53;4.47;;;22.30;99.90;;;;;;5046048;28;20498;-77
2022/06/16 10:10:50;;;;;;;7.63;4.50;;;22.40;99.90;;;;;;5051933;28;20478;-77
2022/06/16 10:13:43;;;;;;;7.78;4.75;;;22.40;99.90;;;;;;5036799;28;20419;-77
2022/06/16 10:16:15;;;;;;;7.87;4.53;;;22.50;99.90;;;;;;5047663;28;20425;-77
2022/06/16 10:18:42;;;;;;;8.27;3.85;;;22.70;99.90;;;;;;5052259;28;20495;-78
2022/06/16 10:21:11;;;;;;;7.10;3.88;;;22.90;99.90;;;;;;5039667;28;20397;-77
2022/06/16 10:23:55;;;;;;;7.68;4.25;;;23.10;99.90;;;;;;5032597;28;20557;-77
2022/06/16 10:26:21;;;;;;;5.70;3.75;;;23.00;99.90;;;;;;5034846;28;20491;-77
2022/06/16 10:29:24;;;;;;;7.85;4.05;;;23.20;99.90;;;;;;5066120;28;20484;-77
2022/06/16 10:31:52;;;;;;;8.20;4.38;;;23.10;99.90;;;;;;5010318;28;20429;-76
2022/06/16 10:34:39;;;;;;;7.78;3.80;;;23.20;99.90;;;;;;5052165;28;20423;-76
2022/06/16 10:37:22;;;;;;;6.50;4.00;;;23.30;99.90;;;;;;5047006;28;20420;-77
2022/06/16 10:39:55;;;;;;;6.82;3.88;;;23.80;99.90;;;;;;5038852;28;20487;-77
2022/06/16 10:42:27;;;;;;;7.63;3.75;;;23.30;99.90;;;;;;5051366;28;20473;-77
2022/06/16 10:45:05;;;;;;;6.63;3.63;;;23.30;99.90;;;;;;5048162;28;20423;-77
2022/06/16 10:48:03;;;;;;;12.90;4.82;;;23.50;99.90;;;;;;5035588;28;20988;-81
2022/06/16 10:50:37;;;;;;;6.80;4.20;;;23.40;99.90;;;;;;5047841;28;20431;-77
2022/06/16 10:53:06;;;;;;;10.38;3.60;;;23.10;99.90;;;;;;5035476;28;20427;-78
2022/06/16 10:55:42;;;;;;;10.40;4.30;;;23.50;99.90;;;;;;5048456;28;20442;-78
2022/06/16 10:58:27;;;;;;;6.93;3.57;;;23.10;99.90;;;;;;5036863;28;20471;-79
2022/06/16 11:01:17;;;;;;;11.60;4.15;;;23.40;99.90;;;;;;5048847;28;20988;-78
2022/06/16 11:03:47;;;;;;;7.35;3.70;;;23.90;99.90;;;;;;5052872;28;20430;-78
2022/06/16 11:06:19;;;;;;;5.75;3.38;;;23.70;99.90;;;;;;5056223;28;20882;-79
2022/06/16 11:08:49;;;;;;;7.20;3.63;;;23.50;99.90;;;;;;5052947;28;20427;-78
2022/06/16 11:11:32;;;;;;;6.38;3.60;;;23.40;99.90;;;;;;5053194;28;20927;-78
2022/06/16 11:14:01;;;;;;;8.80;3.67;;;23.40;99.90;;;;;;5076158;28;20421;-78
2022/06/16 11:16:31;;;;;;;5.93;3.70;;;23.50;99.90;;;;;;5041793;28;20514;-79
2022/06/16 11:19:00;;;;;;;5.73;3.93;;;23.40;99.90;;;;;;5046621;28;20412;-79
2022/06/16 11:21:30;;;;;;;6.32;3.70;;;23.30;99.90;;;;;;5056422;28;20395;-79
2022/06/16 11:24:00;;;;;;;5.57;3.42;;;23.40;99.90;;;;;;5052704;28;20499;-78
2022/06/16 11:26:37;;;;;;;8.45;3.45;;;23.80;99.90;;;;;;5056621;28;20899;-78
2022/06/16 11:29:12;;;;;;;6.95;3.63;;;24.00;99.90;;;;;;5045221;28;20908;-80
2022/06/16 11:31:41;;;;;;;5.07;3.22;;;24.10;99.90;;;;;;5044919;28;20423;-80
2022/06/16 11:34:27;;;;;;;8.02;3.58;;;23.80;99.90;;;;;;5045313;28;20453;-80
2022/06/16 11:36:58;;;;;;;6.40;3.30;;;24.40;99.90;;;;;;5050917;28;20782;-80
2022/06/16 11:39:48;;;;;;;20.88;4.70;;;24.10;99.90;;;;;;5067295;28;20396;-79
2022/06/16 11:42:51;;;;;;;7.35;3.58;;;24.40;99.90;;;;;;5051863;28;20486;-79
2022/06/16 11:45:22;;;;;;;53.75;9.25;;;24.60;99.90;;;;;;5033068;28;20404;-79
2022/06/16 11:47:55;;;;;;;10.90;3.83;;;24.40;99.90;;;;;;5069055;28;20457;-80
2022/06/16 11:50:53;;;;;;;8.65;3.47;;;24.40;99.90;;;;;;5054733;28;20443;-80
2022/06/16 11:53:51;;;;;;;5.55;3.67;;;24.90;99.90;;;;;;4989727;28;20842;-79
2022/06/16 11:56:42;;;;;;;7.22;3.70;;;24.80;99.90;;;;;;5043592;28;20419;-80
2022/06/16 11:59:32;;;;;;;7.07;3.78;;;24.90;99.90;;;;;;5039493;28;20930;-81
2022/06/16 12:02:35;;;;;;;6.10;3.42;;;24.80;99.90;;;;;;5055621;28;20413;-81
2022/06/16 12:05:10;;;;;;;7.30;3.20;;;24.90;99.90;;;;;;5040127;28;20452;-82
2022/06/16 12:07:55;;;;;;;10.60;3.53;;;25.30;99.90;;;;;;5072277;28;20403;-81
2022/06/16 12:10:39;;;;;;;6.38;3.50;;;25.30;99.90;;;;;;5053634;28;20418;-82
2022/06/16 12:13:22;;;;;;;8.98;3.70;;;26.00;99.30;;;;;;5042368;28;20782;-81
2022/06/16 12:15:54;;;;;;;7.30;3.40;;;25.60;98.80;;;;;;5034342;28;20830;-82
2022/06/16 12:18:40;;;;;;;6.38;3.22;;;25.90;99.30;;;;;;5037661;28;20410;-83
2022/06/16 12:21:21;;;;;;;8.25;3.60;;;25.60;98.70;;;;;;5054107;28;20484;-82
2022/06/16 12:23:59;;;;;;;6.47;3.85;;;25.70;98.80;;;;;;5048108;28;20423;-82
2022/06/16 12:26:55;;;;;;;7.53;3.60;;;25.30;98.70;;;;;;5052951;28;20427;-82
2022/06/16 12:29:49;;;;;;;5.05;3.08;;;27.50;99.40;;;;;;5029257;28;20432;-82
2022/06/16 12:32:27;;;;;;;4.93;2.97;;;25.90;98.80;;;;;;5039234;28;20411;-82
2022/06/16 12:35:18;;;;;;;5.30;3.40;;;25.90;98.60;;;;;;5057910;28;20914;-82
2022/06/16 12:37:50;;;;;;;5.07;3.50;;;25.90;98.60;;;;;;5047449;28;20423;-82
2022/06/16 12:40:31;;;;;;;6.78;3.58;;;25.70;99.40;;;;;;5038074;28;20415;-81
2022/06/16 12:43:11;;;;;;;8.03;3.77;;;25.80;99.20;;;;;;5021728;28;20404;-81
2022/06/16 12:45:48;;;;;;;6.47;3.78;;;25.70;99.10;;;;;;5043731;28;20495;-79
2022/06/16 12:48:28;;;;;;;7.75;3.50;;;25.60;99.10;;;;;;5032815;28;20486;-81
2022/06/16 12:51:01;;;;;;;12.82;4.28;;;25.70;99.60;;;;;;5040900;28;20425;-81
2022/06/16 12:53:53;;;;;;;7.03;3.67;;;26.10;99.20;;;;;;5052110;28;20498;-80
2022/06/16 12:56:36;;;;;;;6.88;3.30;;;26.60;98.90;;;;;;5032052;28;20489;-80
2022/06/16 12:59:08;;;;;;;8.05;3.80;;;26.50;97.80;;;;;;5056586;28;20409;-79
2022/06/16 13:01:36;;;;;;;7.03;3.45;;;26.80;98.10;;;;;;5036999;28;20828;-81
2022/06/16 13:04:16;;;;;;;8.73;3.58;;;26.60;98.10;;;;;;5046743;28;20534;-79
2022/06/16 13:06:44;;;;;;;5.25;3.15;;;26.20;98.50;;;;;;5047990;28;20428;-80
2022/06/16 13:09:12;;;;;;;5.97;3.47;;;26.30;98.00;;;;;;5054092;28;20693;-81
2022/06/16 13:11:49;;;;;;;6.68;3.40;;;26.10;98.00;;;;;;5041464;28;20426;-78
2022/06/16 13:14:27;;;;;;;6.68;3.75;;;25.70;98.10;;;;;;5034092;28;20490;-80
2022/06/16 13:16:54;;;;;;;4.87;3.30;;;25.60;98.00;;;;;;5035502;28;20429;-83
2022/06/16 13:19:24;;;;;;;6.10;3.65;;;25.30;98.40;;;;;;5002500;28;20420;-81
2022/06/16 13:21:59;;;;;;;6.68;3.70;;;25.30;98.60;;;;;;5043205;28;20408;-81
2022/06/16 13:24:53;;;;;;;6.37;3.57;;;25.30;98.80;;;;;;5018352;28;20421;-80
2022/06/16 13:27:26;;;;;;;7.30;3.40;;;25.00;98.10;;;;;;5020346;28;20429;-80
2022/06/16 13:29:52;;;;;;;5.75;3.22;;;25.20;98.70;;;;;;5053290;28;20403;-79
2022/06/16 13:32:33;;;;;;;5.43;3.60;;;25.00;99.30;;;;;;5045426;28;20505;-79
2022/06/16 13:35:00;;;;;;;7.35;3.22;;;25.40;98.00;;;;;;5074585;28;20407;-80
2022/06/16 13:37:38;;;;;;;6.18;3.50;;;25.70;98.20;;;;;;5035696;28;20417;-80
2022/06/16 13:40:07;;;;;;;7.57;3.50;;;26.10;97.70;;;;;;5042676;28;20415;-79
2022/06/16 13:42:51;;;;;;;7.10;3.70;;;26.50;97.80;;;;;;5049376;28;20408;-81
2022/06/16 13:45:29;;;;;;;8.13;3.78;;;26.40;97.30;;;;;;5043254;28;20427;-80
2022/06/16 13:48:11;;;;;;;9.10;3.25;;;26.50;97.10;;;;;;5042078;28;20416;-80
2022/06/16 13:50:49;;;;;;;5.93;3.80;;;26.50;97.50;;;;;;5048765;28;20419;-80
2022/06/16 13:53:20;;;;;;;7.00;3.70;;;26.20;96.50;;;;;;5049684;28;20465;-80
2022/06/16 13:56:05;;;;;;;6.30;3.60;;;25.90;97.30;;;;;;5045722;28;20411;-80
2022/06/16 13:58:55;;;;;;;5.55;3.67;;;25.90;96.60;;;;;;5041939;28;20492;-80
2022/06/16 14:01:32;;;;;;;6.28;3.33;;;25.80;96.50;;;;;;5028368;28;20971;-79
2022/06/16 14:03:58;;;;;;;8.52;3.47;;;25.70;96.90;;;;;;5021679;28;20421;-80
2022/06/16 14:06:36;;;;;;;6.23;3.10;;;25.80;97.80;;;;;;5041528;28;20423;-80
2022/06/16 14:09:24;;;;;;;6.32;3.10;;;25.80;97.00;;;;;;5041378;28;20494;-80
2022/06/16 14:11:59;;;;;;;7.53;3.20;;;26.00;97.00;;;;;;5049725;28;20424;-80
2022/06/16 14:14:27;;;;;;;4.63;3.03;;;26.30;97.50;;;;;;5046381;28;20401;-82
2022/06/16 14:16:56;;;;;;;5.40;2.95;;;26.60;96.50;;;;;;5039356;28;20435;-80
2022/06/16 14:19:34;;;;;;;5.80;2.67;;;26.90;96.50;;;;;;5051508;28;20400;-81
2022/06/16 14:22:09;;;;;;;4.10;2.63;;;27.10;96.50;;;;;;5058894;28;20485;-82
2022/06/16 14:24:44;;;;;;;4.82;2.90;;;27.30;95.70;;;;;;5046367;28;20887;-80
2022/06/16 14:27:34;;;;;;;5.80;3.00;;;27.40;95.20;;;;;;5044147;28;20431;-80
2022/06/16 14:30:02;;;;;;;5.47;2.95;;;27.20;95.30;;;;;;5059081;28;20427;-80
2022/06/16 14:32:37;;;;;;;4.70;2.60;;;27.50;95.00;;;;;;5039717;28;20473;-81
2022/06/16 14:35:24;;;;;;;5.25;2.67;;;27.70;95.00;;;;;;5036908;28;20756;-80
2022/06/16 14:38:16;;;;;;;8.63;2.88;;;27.90;94.80;;;;;;5083903;28;20424;-81
2022/06/16 14:40:48;;;;;;;6.18;3.20;;;27.90;94.80;;;;;;5054264;28;20423;-81
2022/06/16 14:43:27;;;;;;;5.72;2.90;;;28.10;94.60;;;;;;5047314;28;20820;-81
2022/06/16 14:45:59;;;;;;;8.73;2.95;;;28.20;94.60;;;;;;5041383;28;20766;-82
2022/06/16 14:48:34;;;;;;;5.18;3.28;;;28.40;94.50;;;;;;5040116;28;20499;-81
2022/06/16 14:51:09;;;;;;;8.85;3.08;;;28.40;94.30;;;;;;5036175;28;20944;-80
2022/06/16 14:53:41;;;;;;;6.88;2.70;;;28.20;94.60;;;;;;5086147;28;20941;-78
2022/06/16 14:56:13;;;;;;;4.95;2.90;;;28.20;94.60;;;;;;5085466;28;20428;-79
2022/06/16 14:58:47;;;;;;;6.53;2.88;;;28.40;94.50;;;;;;5051025;28;20502;-78
2022/06/16 15:01:17;;;;;;;5.70;3.00;;;28.40;94.60;;;;;;5051966;28;20466;-79
2022/06/16 15:03:45;;;;;;;5.37;2.73;;;28.80;94.20;;;;;;5063629;28;20411;-78
2022/06/16 15:06:12;;;;;;;5.07;2.93;;;29.00;94.40;;;;;;5059409;28;20982;-78
2022/06/16 15:08:42;;;;;;;5.70;3.05;;;28.70;94.40;;;;;;5040747;28;20417;-78
2022/06/16 15:11:11;;;;;;;5.30;2.80;;;28.60;94.40;;;;;;5051436;28;20502;-78
2022/06/16 15:13:40;;;;;;;6.65;2.72;;;28.70;94.40;;;;;;5054256;28;20451;-78
2022/06/16 15:18:57;;;;;;;5.60;2.80;;;30.10;93.70;;;;;;5073943;28;20426;-80
2022/06/16 15:21:25;;;;;;;7.15;2.80;;;30.30;92.40;;;;;;5050395;28;20420;-80
2022/06/16 15:23:54;;;;;;;5.95;2.55;;;30.30;92.00;;;;;;5056461;28;20431;-79
2022/06/16 15:26:25;;;;;;;4.05;2.50;;;30.30;92.40;;;;;;5046173;28;20425;-79
2022/06/16 15:28:59;;;;;;;5.72;2.80;;;30.20;92.30;;;;;;5051349;28;20453;-79
2022/06/16 15:31:38;;;;;;;6.13;2.85;;;30.00;92.60;;;;;;5048769;28;20459;-79
2022/06/16 15:36:54;;;;;;;5.07;3.08;;;30.00;92.40;;;;;;5086736;28;20481;-79
2022/06/16 15:39:24;;;;;;;5.95;2.65;;;29.60;92.00;;;;;;5054500;28;20402;-81
2022/06/16 15:41:53;;;;;;;4.80;2.70;;;29.60;93.50;;;;;;5050811;28;20922;-78
2022/06/16 15:44:22;;;;;;;5.80;3.00;;;29.50;93.30;;;;;;5035153;28;20449;-78
2022/06/16 15:46:52;;;;;;;5.57;3.03;;;29.60;92.50;;;;;;5054570;28;21075;-80
2022/06/16 15:49:40;;;;;;;5.90;3.05;;;29.10;93.10;;;;;;5049996;28;20419;-81
2022/06/16 15:52:13;;;;;;;7.10;3.10;;;29.50;93.20;;;;;;5079544;28;20419;-77
2022/06/16 15:54:39;;;;;;;6.28;2.83;;;29.60;92.70;;;;;;5045262;28;20899;-78
2022/06/16 15:57:06;;;;;;;5.47;2.80;;;30.00;93.00;;;;;;5024092;28;20419;-78
2022/06/16 16:00:02;;;;;;;5.13;2.88;;;29.80;93.20;;;;;;5062048;28;20508;-76
2022/06/16 16:02:28;;;;;;;5.45;2.85;;;29.90;93.00;;;;;;5041358;28;20443;-76
2022/06/16 16:04:57;;;;;;;5.05;2.70;;;30.10;93.20;;;;;;5018869;28;20437;-76
2022/06/16 16:07:25;;;;;;;6.13;3.00;;;30.00;93.50;;;;;;5034793;28;20566;-75
2022/06/16 16:09:54;;;;;;;6.18;2.90;;;29.50;93.80;;;;;;5047234;28;20438;-76
2022/06/16 16:12:21;;;;;;;6.50;3.10;;;28.90;94.20;;;;;;5050526;28;20759;-76
2022/06/16 16:14:52;;;;;;;6.00;3.03;;;28.60;94.90;;;;;;5052323;28;20468;-76
2022/06/16 16:17:18;;;;;;;9.25;3.78;;;28.50;94.90;;;;;;5068359;28;20928;-76
2022/06/16 16:20:00;;;;;;;7.33;3.37;;;27.60;95.00;;;;;;5052223;28;20423;-75
2022/06/16 16:22:26;;;;;;;5.97;3.50;;;27.50;95.80;;;;;;5044330;28;20409;-76
2022/06/16 16:24:53;;;;;;;7.15;3.30;;;27.20;95.90;;;;;;5050025;28;20426;-75
2022/06/16 16:27:28;;;;;;;6.20;3.03;;;27.00;96.40;;;;;;5068172;28;20755;-78
2022/06/16 16:29:56;;;;;;;5.22;2.70;;;26.70;96.90;;;;;;5051125;28;20428;-75
2022/06/16 16:32:30;;;;;;;6.43;3.00;;;26.50;96.90;;;;;;5032143;28;20796;-75
2022/06/16 16:35:02;;;;;;;6.43;3.10;;;26.50;97.10;;;;;;5025195;28;20421;-75
2022/06/16 16:37:32;;;;;;;7.45;3.90;;;26.40;96.90;;;;;;5047777;28;20801;-75
2022/06/16 16:40:07;;;;;;;7.78;3.80;;;26.10;97.70;;;;;;5039000;28;20420;-73
2022/06/16 16:45:30;;;;;;;7.33;3.40;;;25.50;98.20;;;;;;5051255;28;20790;-71
2022/06/16 16:48:22;;;;;;;6.78;3.63;;;25.40;98.30;;;;;;5077198;28;20931;-71
2022/06/16 16:51:10;;;;;;;5.75;3.10;;;25.30;98.20;;;;;;5051471;28;20403;-75
2022/06/16 16:53:43;;;;;;;6.72;3.03;;;25.20;96.50;;;;;;5035859;28;20530;-77
2022/06/16 16:56:18;;;;;;;7.20;3.00;;;25.10;96.70;;;;;;5056153;28;20416;-77
2022/06/16 16:58:59;;;;;;;6.07;3.50;;;24.90;97.00;;;;;;5052856;28;20422;-77
2022/06/16 17:01:26;;;;;;;6.68;3.70;;;24.70;97.50;;;;;;5046754;28;20536;-77
2022/06/16 17:03:55;;;;;;;6.70;4.28;;;24.80;97.40;;;;;;5051101;28;20482;-77
2022/06/16 17:06:21;;;;;;;7.93;4.43;;;24.70;97.90;;;;;;5067029;28;20412;-77
2022/06/16 17:08:48;;;;;;;5.80;3.83;;;24.30;98.10;;;;;;5031468;28;20409;-77
2022/06/16 17:14:01;;;;;;;6.18;3.70;;;24.40;97.60;;;;;;5042819;28;20795;-76
2022/06/16 17:16:28;;;;;;;8.73;4.30;;;24.70;98.30;;;;;;5052293;28;20470;-77
2022/06/16 17:18:55;;;;;;;7.68;4.20;;;24.70;98.90;;;;;;5033998;28;20709;-77
2022/06/16 17:21:21;;;;;;;6.15;3.75;;;24.70;99.40;;;;;;5048844;28;20443;-76
2022/06/16 17:23:46;;;;;;;8.77;4.30;;;24.70;99.60;;;;;;5045765;28;20905;-77
2022/06/16 17:26:15;;;;;;;7.82;4.00;;;24.60;99.40;;;;;;5050224;28;20426;-77
2022/06/16 17:28:40;;;;;;;7.22;4.22;;;24.80;99.40;;;;;;5043372;28;20807;-77
2022/06/16 17:31:07;;;;;;;8.32;4.10;;;24.40;99.50;;;;;;5034986;28;20518;-77
2022/06/16 17:33:35;;;;;;;8.25;4.60;;;24.70;99.90;;;;;;5028977;28;21120;-77
2022/06/16 17:36:01;;;;;;;9.20;5.30;;;24.80;99.90;;;;;;5055005;28;20462;-77
2022/06/16 17:38:27;;;;;;;8.17;5.37;;;25.30;99.90;;;;;;5067973;28;20436;-77
2022/06/16 17:40:53;;;;;;;9.88;5.47;;;25.60;99.90;;;;;;5031283;28;20954;-77
2022/06/16 17:43:19;;;;;;;8.85;4.93;;;26.40;99.90;;;;;;5032330;28;20412;-77
2022/06/16 17:45:45;;;;;;;8.20;5.57;;;27.10;99.80;;;;;;5031869;28;20419;-77
2022/06/16 17:48:10;;;;;;;7.57;5.03;;;27.50;98.70;;;;;;5029602;28;20411;-77
2022/06/16 17:50:38;;;;;;;7.88;6.00;;;27.60;98.20;;;;;;5003820;28;20400;-77
2022/06/16 18:01:22;;;;;;;8.60;6.50;;;26.90;98.40;;;;;;5062925;28;20441;-76
2022/06/16 18:03:48;;;;;;;9.93;6.10;;;26.80;98.90;;;;;;5045604;28;20506;-77
2022/06/16 18:06:14;;;;;;;9.97;6.07;;;27.00;99.00;;;;;;5069859;28;20411;-78
2022/06/16 18:08:47;;;;;;;9.75;6.70;;;27.40;98.80;;;;;;5052017;28;20431;-78
2022/06/16 18:11:14;;;;;;;10.25;6.60;;;27.60;98.50;;;;;;5059809;28;20914;-77
2022/06/16 18:13:43;;;;;;;8.85;6.40;;;27.50;98.50;;;;;;5045213;28;20495;-77
2022/06/16 18:16:13;;;;;;;9.93;6.30;;;27.70;98.60;;;;;;5019704;28;20508;-77
2022/06/16 18:18:40;;;;;;;8.23;6.00;;;28.20;98.40;;;;;;5030753;28;20419;-77
2022/06/16 18:21:29;;;;;;;10.77;5.65;;;28.40;97.90;;;;;;5018416;28;20810;-77
2022/06/16 18:23:57;;;;;;;8.88;6.13;;;28.70;97.50;;;;;;5063302;28;20415;-78
2022/06/16 18:26:30;;;;;;;9.52;5.82;;;29.00;97.30;;;;;;5043779;28;20415;-78
2022/06/16 18:29:00;;;;;;;9.77;6.05;;;28.80;96.40;;;;;;5045787;28;20409;-77
2022/06/16 18:31:27;;;;;;;9.10;5.85;;;28.70;97.00;;;;;;5024157;28;20426;-77
2022/06/16 18:33:53;;;;;;;7.70;5.68;;;28.80;97.20;;;;;;5013812;28;20418;-78
2022/06/16 18:36:19;;;;;;;9.20;5.53;;;29.00;96.80;;;;;;5017090;28;20853;-79
2022/06/16 18:38:45;;;;;;;8.50;5.10;;;28.70;96.90;;;;;;5023799;28;20419;-78
2022/06/16 18:41:12;;;;;;;9.25;5.22;;;28.40;96.70;;;;;;5049403;28;20443;-78
2022/06/16 18:43:41;;;;;;;9.50;5.22;;;28.70;96.50;;;;;;5048037;28;20427;-79
2022/06/16 18:46:18;;;;;;;8.90;5.65;;;29.10;96.40;;;;;;5047192;28;20463;-78
2022/06/16 18:48:44;;;;;;;8.68;5.45;;;29.00;95.60;;;;;;5030904;28;20512;-78
2022/06/16 18:51:17;;;;;;;9.95;5.55;;;29.10;96.20;;;;;;5080687;28;20413;-79
2022/06/16 18:53:43;;;;;;;10.18;5.25;;;28.90;95.90;;;;;;5038583;28;20432;-78
2022/06/16 18:56:09;;;;;;;9.25;5.65;;;28.10;96.00;;;;;;5021815;28;20428;-77
2022/06/16 18:58:35;;;;;;;8.53;6.30;;;27.40;96.50;;;;;;5052972;28;20406;-78
2022/06/16 19:01:02;;;;;;;10.93;6.68;;;26.50;97.00;;;;;;5031409;28;20422;-78
2022/06/16 19:03:29;;;;;;;8.15;6.30;;;25.90;97.60;;;;;;5019944;28;20924;-77
2022/06/16 19:05:56;;;;;;;10.13;6.30;;;26.10;97.80;;;;;;5007402;28;20453;-78